sensor_id;sensor_type;location;lat;lon;timestamp;P1;durP1;ratioP1;P2;durP2;ratioP2
13327;SDS011;6733;51.044;3.746;2022-08-19T00:00:37;41.87;;;36.47;;
13327;SDS011;6733;51.044;3.746;2022-08-19T00:03:04;44.40;;;37.53;;
13327;SDS011;6733;51.044;3.746;2022-08-19T00:05:32;46.40;;;35.77;;
13327;SDS011;6733;51.044;3.746;2022-08-19T00:07:59;39.23;;;33.70;;
13327;SDS011;6733;51.044;3.746;2022-08-19T00:10:25;44.30;;;35.60;;
13327;SDS011;6733;51.044;3.746;2022-08-19T00:12:51;43.00;;;35.13;;
13327;SDS011;6733;51.044;3.746;2022-08-19T00:15:18;41.77;;;36.67;;
13327;SDS011;6733;51.044;3.746;2022-08-19T00:17:46;43.93;;;35.40;;
13327;SDS011;6733;51.044;3.746;2022-08-19T00:20:14;40.77;;;33.67;;
13327;SDS011;6733;51.044;3.746;2022-08-19T00:22:43;41.60;;;32.83;;
13327;SDS011;6733;51.044;3.746;2022-08-19T00:25:11;37.87;;;31.37;;
13327;SDS011;6733;51.044;3.746;2022-08-19T00:27:37;38.60;;;32.03;;
13327;SDS011;6733;51.044;3.746;2022-08-19T00:30:04;42.03;;;31.10;;
13327;SDS011;6733;51.044;3.746;2022-08-19T00:32:32;36.13;;;31.57;;
13327;SDS011;6733;51.044;3.746;2022-08-19T00:35:00;37.00;;;31.00;;
13327;SDS011;6733;51.044;3.746;2022-08-19T00:37:26;40.37;;;32.90;;
13327;SDS011;6733;51.044;3.746;2022-08-19T00:39:53;39.43;;;32.17;;
13327;SDS011;6733;51.044;3.746;2022-08-19T00:42:19;40.90;;;34.47;;
13327;SDS011;6733;51.044;3.746;2022-08-19T00:44:46;37.83;;;33.63;;
13327;SDS011;6733;51.044;3.746;2022-08-19T00:47:13;43.57;;;34.53;;
13327;SDS011;6733;51.044;3.746;2022-08-19T00:49:41;39.93;;;32.67;;
13327;SDS011;6733;51.044;3.746;2022-08-19T00:52:14;39.00;;;32.30;;
13327;SDS011;6733;51.044;3.746;2022-08-19T00:54:44;39.73;;;32.57;;
13327;SDS011;6733;51.044;3.746;2022-08-19T00:57:14;41.20;;;33.10;;
13327;SDS011;6733;51.044;3.746;2022-08-19T00:59:44;36.83;;;31.17;;
13327;SDS011;6733;51.044;3.746;2022-08-19T01:02:13;37.00;;;29.53;;
13327;SDS011;6733;51.044;3.746;2022-08-19T01:04:40;36.57;;;29.67;;
13327;SDS011;6733;51.044;3.746;2022-08-19T01:07:06;35.60;;;28.53;;
13327;SDS011;6733;51.044;3.746;2022-08-19T01:09:33;40.63;;;30.60;;
13327;SDS011;6733;51.044;3.746;2022-08-19T01:11:59;34.37;;;28.33;;
13327;SDS011;6733;51.044;3.746;2022-08-19T01:14:26;32.83;;;26.67;;
13327;SDS011;6733;51.044;3.746;2022-08-19T01:16:53;37.37;;;27.53;;
13327;SDS011;6733;51.044;3.746;2022-08-19T01:19:26;34.07;;;26.63;;
13327;SDS011;6733;51.044;3.746;2022-08-19T01:22:01;31.60;;;26.53;;
13327;SDS011;6733;51.044;3.746;2022-08-19T01:24:31;33.00;;;27.50;;
13327;SDS011;6733;51.044;3.746;2022-08-19T01:26:58;33.47;;;27.43;;
13327;SDS011;6733;51.044;3.746;2022-08-19T01:29:24;34.77;;;28.87;;
13327;SDS011;6733;51.044;3.746;2022-08-19T01:31:50;35.90;;;27.53;;
13327;SDS011;6733;51.044;3.746;2022-08-19T01:34:18;38.43;;;26.93;;
13327;SDS011;6733;51.044;3.746;2022-08-19T01:36:45;32.43;;;25.97;;
13327;SDS011;6733;51.044;3.746;2022-08-19T01:39:14;33.23;;;25.40;;
13327;SDS011;6733;51.044;3.746;2022-08-19T01:41:44;35.07;;;23.87;;
13327;SDS011;6733;51.044;3.746;2022-08-19T01:44:11;31.43;;;24.63;;
13327;SDS011;6733;51.044;3.746;2022-08-19T01:46:37;31.47;;;24.97;;
13327;SDS011;6733;51.044;3.746;2022-08-19T01:49:04;34.83;;;25.37;;
13327;SDS011;6733;51.044;3.746;2022-08-19T01:51:31;29.70;;;23.17;;
13327;SDS011;6733;51.044;3.746;2022-08-19T01:53:57;30.07;;;23.47;;
13327;SDS011;6733;51.044;3.746;2022-08-19T01:56:24;32.57;;;23.90;;
13327;SDS011;6733;51.044;3.746;2022-08-19T01:58:54;34.23;;;24.37;;
13327;SDS011;6733;51.044;3.746;2022-08-19T02:01:24;29.30;;;23.70;;
13327;SDS011;6733;51.044;3.746;2022-08-19T02:03:50;29.83;;;23.80;;
13327;SDS011;6733;51.044;3.746;2022-08-19T02:06:18;33.33;;;24.10;;
13327;SDS011;6733;51.044;3.746;2022-08-19T02:08:45;30.70;;;23.50;;
13327;SDS011;6733;51.044;3.746;2022-08-19T02:11:23;30.63;;;23.97;;
13327;SDS011;6733;51.044;3.746;2022-08-19T02:13:52;34.43;;;24.17;;
13327;SDS011;6733;51.044;3.746;2022-08-19T02:16:19;29.40;;;23.13;;
13327;SDS011;6733;51.044;3.746;2022-08-19T02:18:46;33.57;;;23.33;;
13327;SDS011;6733;51.044;3.746;2022-08-19T02:21:19;35.43;;;24.57;;
13327;SDS011;6733;51.044;3.746;2022-08-19T02:23:47;32.33;;;22.93;;
13327;SDS011;6733;51.044;3.746;2022-08-19T02:26:14;29.03;;;22.63;;
13327;SDS011;6733;51.044;3.746;2022-08-19T02:28:40;30.07;;;23.83;;
13327;SDS011;6733;51.044;3.746;2022-08-19T02:31:18;31.57;;;22.53;;
13327;SDS011;6733;51.044;3.746;2022-08-19T02:33:52;29.87;;;22.53;;
13327;SDS011;6733;51.044;3.746;2022-08-19T02:36:19;28.47;;;22.63;;
13327;SDS011;6733;51.044;3.746;2022-08-19T02:38:45;33.27;;;24.50;;
13327;SDS011;6733;51.044;3.746;2022-08-19T02:41:13;31.87;;;23.53;;
13327;SDS011;6733;51.044;3.746;2022-08-19T02:43:41;31.03;;;25.10;;
13327;SDS011;6733;51.044;3.746;2022-08-19T02:46:27;32.20;;;23.77;;
13327;SDS011;6733;51.044;3.746;2022-08-19T02:48:57;33.00;;;24.33;;
13327;SDS011;6733;51.044;3.746;2022-08-19T02:51:30;28.43;;;22.70;;
13327;SDS011;6733;51.044;3.746;2022-08-19T02:53:58;26.97;;;23.07;;
13327;SDS011;6733;51.044;3.746;2022-08-19T02:56:25;31.63;;;24.53;;
13327;SDS011;6733;51.044;3.746;2022-08-19T02:58:53;28.93;;;22.87;;
13327;SDS011;6733;51.044;3.746;2022-08-19T03:01:24;29.60;;;22.37;;
13327;SDS011;6733;51.044;3.746;2022-08-19T03:03:58;32.00;;;24.13;;
13327;SDS011;6733;51.044;3.746;2022-08-19T03:06:26;31.20;;;22.23;;
13327;SDS011;6733;51.044;3.746;2022-08-19T03:08:53;27.33;;;22.30;;
13327;SDS011;6733;51.044;3.746;2022-08-19T03:11:20;28.30;;;22.10;;
13327;SDS011;6733;51.044;3.746;2022-08-19T03:13:51;29.43;;;21.30;;
13327;SDS011;6733;51.044;3.746;2022-08-19T03:16:19;27.17;;;21.57;;
13327;SDS011;6733;51.044;3.746;2022-08-19T03:18:47;27.20;;;21.63;;
13327;SDS011;6733;51.044;3.746;2022-08-19T03:21:20;28.43;;;21.27;;
13327;SDS011;6733;51.044;3.746;2022-08-19T03:23:50;25.17;;;20.73;;
13327;SDS011;6733;51.044;3.746;2022-08-19T03:26:19;28.63;;;20.10;;
13327;SDS011;6733;51.044;3.746;2022-08-19T03:28:46;26.03;;;19.57;;
13327;SDS011;6733;51.044;3.746;2022-08-19T03:31:16;25.87;;;19.50;;
13327;SDS011;6733;51.044;3.746;2022-08-19T03:33:44;29.63;;;20.10;;
13327;SDS011;6733;51.044;3.746;2022-08-19T03:36:12;26.00;;;19.33;;
13327;SDS011;6733;51.044;3.746;2022-08-19T03:38:42;30.07;;;19.53;;
13327;SDS011;6733;51.044;3.746;2022-08-19T03:41:11;22.90;;;18.77;;
13327;SDS011;6733;51.044;3.746;2022-08-19T03:43:41;24.80;;;19.20;;
13327;SDS011;6733;51.044;3.746;2022-08-19T03:46:10;28.63;;;19.33;;
13327;SDS011;6733;51.044;3.746;2022-08-19T03:48:38;22.60;;;17.80;;
13327;SDS011;6733;51.044;3.746;2022-08-19T03:51:06;25.97;;;19.10;;
13327;SDS011;6733;51.044;3.746;2022-08-19T03:53:34;29.17;;;19.07;;
13327;SDS011;6733;51.044;3.746;2022-08-19T03:56:01;22.23;;;17.73;;
13327;SDS011;6733;51.044;3.746;2022-08-19T03:58:28;25.57;;;17.73;;
13327;SDS011;6733;51.044;3.746;2022-08-19T04:00:55;22.23;;;17.20;;
13327;SDS011;6733;51.044;3.746;2022-08-19T04:03:22;22.73;;;17.30;;
13327;SDS011;6733;51.044;3.746;2022-08-19T04:05:50;21.60;;;16.67;;
13327;SDS011;6733;51.044;3.746;2022-08-19T04:08:16;22.73;;;15.70;;
13327;SDS011;6733;51.044;3.746;2022-08-19T04:10:46;19.30;;;16.03;;
13327;SDS011;6733;51.044;3.746;2022-08-19T04:13:14;25.17;;;17.00;;
13327;SDS011;6733;51.044;3.746;2022-08-19T04:15:42;20.57;;;16.80;;
13327;SDS011;6733;51.044;3.746;2022-08-19T04:18:10;22.73;;;16.40;;
13327;SDS011;6733;51.044;3.746;2022-08-19T04:20:44;28.13;;;16.07;;
13327;SDS011;6733;51.044;3.746;2022-08-19T04:23:12;25.37;;;16.30;;
13327;SDS011;6733;51.044;3.746;2022-08-19T04:25:40;19.93;;;16.33;;
13327;SDS011;6733;51.044;3.746;2022-08-19T04:28:08;25.77;;;16.70;;
13327;SDS011;6733;51.044;3.746;2022-08-19T04:30:40;22.20;;;16.27;;
13327;SDS011;6733;51.044;3.746;2022-08-19T04:33:09;20.67;;;16.63;;
13327;SDS011;6733;51.044;3.746;2022-08-19T04:35:38;26.17;;;17.63;;
13327;SDS011;6733;51.044;3.746;2022-08-19T04:38:06;24.00;;;16.83;;
13327;SDS011;6733;51.044;3.746;2022-08-19T04:40:33;20.00;;;15.43;;
13327;SDS011;6733;51.044;3.746;2022-08-19T04:43:18;19.67;;;16.23;;
13327;SDS011;6733;51.044;3.746;2022-08-19T04:45:45;20.47;;;16.13;;
13327;SDS011;6733;51.044;3.746;2022-08-19T04:48:12;24.90;;;15.77;;
13327;SDS011;6733;51.044;3.746;2022-08-19T04:50:42;22.70;;;15.80;;
13327;SDS011;6733;51.044;3.746;2022-08-19T04:53:10;20.90;;;16.70;;
13327;SDS011;6733;51.044;3.746;2022-08-19T04:55:38;21.87;;;15.80;;
13327;SDS011;6733;51.044;3.746;2022-08-19T04:58:05;20.30;;;15.40;;
13327;SDS011;6733;51.044;3.746;2022-08-19T05:00:32;22.13;;;16.57;;
13327;SDS011;6733;51.044;3.746;2022-08-19T05:02:58;22.60;;;15.73;;
13327;SDS011;6733;51.044;3.746;2022-08-19T05:05:24;21.40;;;14.77;;
13327;SDS011;6733;51.044;3.746;2022-08-19T05:07:50;20.20;;;14.07;;
13327;SDS011;6733;51.044;3.746;2022-08-19T05:10:16;19.47;;;14.53;;
13327;SDS011;6733;51.044;3.746;2022-08-19T05:12:42;20.60;;;14.73;;
13327;SDS011;6733;51.044;3.746;2022-08-19T05:15:09;22.90;;;15.47;;
13327;SDS011;6733;51.044;3.746;2022-08-19T05:17:36;20.57;;;15.13;;
13327;SDS011;6733;51.044;3.746;2022-08-19T05:20:03;27.80;;;14.37;;
13327;SDS011;6733;51.044;3.746;2022-08-19T05:22:49;23.70;;;14.77;;
13327;SDS011;6733;51.044;3.746;2022-08-19T05:25:17;27.27;;;19.27;;
13327;SDS011;6733;51.044;3.746;2022-08-19T05:27:45;17.33;;;13.67;;
13327;SDS011;6733;51.044;3.746;2022-08-19T05:30:11;18.73;;;14.07;;
13327;SDS011;6733;51.044;3.746;2022-08-19T05:32:38;18.50;;;13.40;;
13327;SDS011;6733;51.044;3.746;2022-08-19T05:35:05;19.57;;;13.27;;
13327;SDS011;6733;51.044;3.746;2022-08-19T05:37:31;22.50;;;13.53;;
13327;SDS011;6733;51.044;3.746;2022-08-19T05:39:58;18.57;;;14.17;;
13327;SDS011;6733;51.044;3.746;2022-08-19T05:42:25;21.33;;;13.60;;
13327;SDS011;6733;51.044;3.746;2022-08-19T05:44:51;19.13;;;12.93;;
13327;SDS011;6733;51.044;3.746;2022-08-19T05:47:18;18.77;;;12.63;;
13327;SDS011;6733;51.044;3.746;2022-08-19T05:49:45;21.70;;;14.10;;
13327;SDS011;6733;51.044;3.746;2022-08-19T05:52:13;20.97;;;14.27;;
13327;SDS011;6733;51.044;3.746;2022-08-19T05:54:41;17.60;;;13.53;;
13327;SDS011;6733;51.044;3.746;2022-08-19T05:57:09;19.57;;;14.60;;
13327;SDS011;6733;51.044;3.746;2022-08-19T05:59:36;20.40;;;13.83;;
13327;SDS011;6733;51.044;3.746;2022-08-19T06:02:02;20.53;;;14.77;;
13327;SDS011;6733;51.044;3.746;2022-08-19T06:04:30;17.03;;;13.73;;
13327;SDS011;6733;51.044;3.746;2022-08-19T06:06:56;24.30;;;14.67;;
13327;SDS011;6733;51.044;3.746;2022-08-19T06:09:23;19.50;;;14.10;;
13327;SDS011;6733;51.044;3.746;2022-08-19T06:11:54;16.63;;;12.43;;
13327;SDS011;6733;51.044;3.746;2022-08-19T06:14:32;18.87;;;13.73;;
13327;SDS011;6733;51.044;3.746;2022-08-19T06:17:00;18.77;;;13.23;;
13327;SDS011;6733;51.044;3.746;2022-08-19T06:19:28;20.30;;;14.37;;
13327;SDS011;6733;51.044;3.746;2022-08-19T06:21:58;16.80;;;13.73;;
13327;SDS011;6733;51.044;3.746;2022-08-19T06:24:26;18.20;;;13.57;;
13327;SDS011;6733;51.044;3.746;2022-08-19T06:26:54;18.40;;;13.43;;
13327;SDS011;6733;51.044;3.746;2022-08-19T06:29:22;15.87;;;13.20;;
13327;SDS011;6733;51.044;3.746;2022-08-19T06:31:51;19.27;;;13.03;;
13327;SDS011;6733;51.044;3.746;2022-08-19T06:34:19;13.63;;;12.13;;
13327;SDS011;6733;51.044;3.746;2022-08-19T06:36:47;13.30;;;11.13;;
13327;SDS011;6733;51.044;3.746;2022-08-19T06:39:16;15.97;;;11.97;;
13327;SDS011;6733;51.044;3.746;2022-08-19T06:41:50;18.87;;;12.23;;
13327;SDS011;6733;51.044;3.746;2022-08-19T06:44:18;17.17;;;11.90;;
13327;SDS011;6733;51.044;3.746;2022-08-19T06:46:46;15.10;;;11.83;;
13327;SDS011;6733;51.044;3.746;2022-08-19T06:49:14;14.83;;;11.07;;
13327;SDS011;6733;51.044;3.746;2022-08-19T06:51:42;15.07;;;11.57;;
13327;SDS011;6733;51.044;3.746;2022-08-19T06:54:09;16.80;;;10.70;;
13327;SDS011;6733;51.044;3.746;2022-08-19T06:56:36;16.20;;;11.57;;
13327;SDS011;6733;51.044;3.746;2022-08-19T06:59:04;18.60;;;11.30;;
13327;SDS011;6733;51.044;3.746;2022-08-19T07:01:36;13.73;;;10.87;;
13327;SDS011;6733;51.044;3.746;2022-08-19T07:04:05;16.23;;;10.97;;
13327;SDS011;6733;51.044;3.746;2022-08-19T07:06:32;17.07;;;11.30;;
13327;SDS011;6733;51.044;3.746;2022-08-19T07:08:58;15.90;;;11.27;;
13327;SDS011;6733;51.044;3.746;2022-08-19T07:11:25;16.00;;;10.70;;
13327;SDS011;6733;51.044;3.746;2022-08-19T07:13:51;14.33;;;11.23;;
13327;SDS011;6733;51.044;3.746;2022-08-19T07:16:18;15.00;;;10.33;;
13327;SDS011;6733;51.044;3.746;2022-08-19T07:18:46;10.53;;;9.40;;
13327;SDS011;6733;51.044;3.746;2022-08-19T07:21:15;14.80;;;10.43;;
13327;SDS011;6733;51.044;3.746;2022-08-19T07:23:46;16.00;;;11.13;;
13327;SDS011;6733;51.044;3.746;2022-08-19T07:26:15;16.60;;;10.47;;
13327;SDS011;6733;51.044;3.746;2022-08-19T07:28:45;12.27;;;10.07;;
13327;SDS011;6733;51.044;3.746;2022-08-19T07:31:13;12.33;;;10.13;;
13327;SDS011;6733;51.044;3.746;2022-08-19T07:33:41;12.27;;;10.23;;
13327;SDS011;6733;51.044;3.746;2022-08-19T07:36:09;14.10;;;11.10;;
13327;SDS011;6733;51.044;3.746;2022-08-19T07:38:42;16.03;;;10.60;;
13327;SDS011;6733;51.044;3.746;2022-08-19T07:41:11;12.20;;;10.20;;
13327;SDS011;6733;51.044;3.746;2022-08-19T07:43:38;17.53;;;10.80;;
13327;SDS011;6733;51.044;3.746;2022-08-19T07:46:05;11.93;;;10.10;;
13327;SDS011;6733;51.044;3.746;2022-08-19T07:48:32;17.83;;;11.03;;
13327;SDS011;6733;51.044;3.746;2022-08-19T07:51:00;14.17;;;11.30;;
13327;SDS011;6733;51.044;3.746;2022-08-19T07:53:27;12.77;;;10.50;;
13327;SDS011;6733;51.044;3.746;2022-08-19T07:55:55;13.93;;;9.53;;
13327;SDS011;6733;51.044;3.746;2022-08-19T07:58:24;12.47;;;9.37;;
13327;SDS011;6733;51.044;3.746;2022-08-19T08:00:51;17.27;;;10.70;;
13327;SDS011;6733;51.044;3.746;2022-08-19T08:03:18;15.13;;;9.83;;
13327;SDS011;6733;51.044;3.746;2022-08-19T08:06:07;16.00;;;10.53;;
13327;SDS011;6733;51.044;3.746;2022-08-19T08:08:52;11.40;;;9.40;;
13327;SDS011;6733;51.044;3.746;2022-08-19T08:11:49;13.67;;;10.50;;
13327;SDS011;6733;51.044;3.746;2022-08-19T08:14:26;11.00;;;9.53;;
13327;SDS011;6733;51.044;3.746;2022-08-19T08:16:58;11.73;;;9.90;;
13327;SDS011;6733;51.044;3.746;2022-08-19T08:19:25;11.47;;;9.40;;
13327;SDS011;6733;51.044;3.746;2022-08-19T08:21:56;11.47;;;10.27;;
13327;SDS011;6733;51.044;3.746;2022-08-19T08:24:24;17.57;;;10.03;;
13327;SDS011;6733;51.044;3.746;2022-08-19T08:26:52;11.73;;;10.03;;
13327;SDS011;6733;51.044;3.746;2022-08-19T08:29:18;15.17;;;10.03;;
13327;SDS011;6733;51.044;3.746;2022-08-19T08:31:45;11.40;;;10.20;;
13327;SDS011;6733;51.044;3.746;2022-08-19T08:34:13;12.47;;;10.20;;
13327;SDS011;6733;51.044;3.746;2022-08-19T08:36:40;16.63;;;10.43;;
13327;SDS011;6733;51.044;3.746;2022-08-19T08:39:11;14.57;;;11.30;;
13327;SDS011;6733;51.044;3.746;2022-08-19T08:44:16;11.73;;;9.10;;
13327;SDS011;6733;51.044;3.746;2022-08-19T08:47:04;14.63;;;9.50;;
13327;SDS011;6733;51.044;3.746;2022-08-19T08:49:53;13.20;;;9.17;;
13327;SDS011;6733;51.044;3.746;2022-08-19T08:52:25;12.23;;;10.40;;
13327;SDS011;6733;51.044;3.746;2022-08-19T08:54:53;13.30;;;10.67;;
13327;SDS011;6733;51.044;3.746;2022-08-19T08:57:26;11.07;;;9.83;;
13327;SDS011;6733;51.044;3.746;2022-08-19T09:00:03;12.13;;;10.17;;
13327;SDS011;6733;51.044;3.746;2022-08-19T09:02:33;11.13;;;10.00;;
13327;SDS011;6733;51.044;3.746;2022-08-19T09:05:00;11.33;;;9.63;;
13327;SDS011;6733;51.044;3.746;2022-08-19T09:09:53;10.57;;;8.80;;
13327;SDS011;6733;51.044;3.746;2022-08-19T09:15:42;9.90;;;8.90;;
13327;SDS011;6733;51.044;3.746;2022-08-19T09:18:13;9.97;;;8.97;;
13327;SDS011;6733;51.044;3.746;2022-08-19T09:20:41;9.63;;;8.60;;
13327;SDS011;6733;51.044;3.746;2022-08-19T09:23:08;9.77;;;7.03;;
13327;SDS011;6733;51.044;3.746;2022-08-19T09:25:36;7.73;;;6.40;;
13327;SDS011;6733;51.044;3.746;2022-08-19T09:28:02;7.53;;;6.73;;
13327;SDS011;6733;51.044;3.746;2022-08-19T09:30:30;8.07;;;7.03;;
13327;SDS011;6733;51.044;3.746;2022-08-19T09:32:59;6.80;;;6.00;;
13327;SDS011;6733;51.044;3.746;2022-08-19T09:35:26;6.53;;;5.67;;
13327;SDS011;6733;51.044;3.746;2022-08-19T09:37:55;7.67;;;5.50;;
13327;SDS011;6733;51.044;3.746;2022-08-19T09:40:23;5.47;;;4.97;;
13327;SDS011;6733;51.044;3.746;2022-08-19T09:42:50;5.60;;;5.10;;
13327;SDS011;6733;51.044;3.746;2022-08-19T09:45:18;5.50;;;4.90;;
13327;SDS011;6733;51.044;3.746;2022-08-19T09:47:47;7.43;;;5.13;;
13327;SDS011;6733;51.044;3.746;2022-08-19T09:50:16;6.00;;;5.33;;
13327;SDS011;6733;51.044;3.746;2022-08-19T09:52:44;9.87;;;5.20;;
13327;SDS011;6733;51.044;3.746;2022-08-19T09:55:11;5.50;;;5.00;;
13327;SDS011;6733;51.044;3.746;2022-08-19T09:57:38;6.23;;;5.10;;
13327;SDS011;6733;51.044;3.746;2022-08-19T10:00:05;5.80;;;5.10;;
13327;SDS011;6733;51.044;3.746;2022-08-19T10:02:33;8.20;;;4.70;;
13327;SDS011;6733;51.044;3.746;2022-08-19T10:04:59;6.23;;;5.33;;
13327;SDS011;6733;51.044;3.746;2022-08-19T10:07:58;6.33;;;5.57;;
13327;SDS011;6733;51.044;3.746;2022-08-19T10:10:26;5.90;;;5.37;;
13327;SDS011;6733;51.044;3.746;2022-08-19T10:12:52;6.17;;;5.57;;
13327;SDS011;6733;51.044;3.746;2022-08-19T10:15:20;7.13;;;5.97;;
13327;SDS011;6733;51.044;3.746;2022-08-19T10:17:46;6.60;;;6.00;;
13327;SDS011;6733;51.044;3.746;2022-08-19T10:20:13;6.53;;;5.90;;
13327;SDS011;6733;51.044;3.746;2022-08-19T10:22:39;6.23;;;5.63;;
13327;SDS011;6733;51.044;3.746;2022-08-19T10:25:05;5.97;;;5.47;;
13327;SDS011;6733;51.044;3.746;2022-08-19T10:27:32;5.30;;;4.90;;
13327;SDS011;6733;51.044;3.746;2022-08-19T10:29:58;5.80;;;4.80;;
13327;SDS011;6733;51.044;3.746;2022-08-19T10:32:24;5.10;;;4.60;;
13327;SDS011;6733;51.044;3.746;2022-08-19T10:34:50;6.17;;;4.70;;
13327;SDS011;6733;51.044;3.746;2022-08-19T10:37:17;5.87;;;4.50;;
13327;SDS011;6733;51.044;3.746;2022-08-19T10:39:45;5.67;;;4.83;;
13327;SDS011;6733;51.044;3.746;2022-08-19T10:42:13;5.47;;;4.77;;
13327;SDS011;6733;51.044;3.746;2022-08-19T10:44:41;5.50;;;5.00;;
13327;SDS011;6733;51.044;3.746;2022-08-19T10:47:08;5.57;;;5.07;;
13327;SDS011;6733;51.044;3.746;2022-08-19T10:49:34;5.57;;;5.13;;
13327;SDS011;6733;51.044;3.746;2022-08-19T10:52:21;5.60;;;5.10;;
13327;SDS011;6733;51.044;3.746;2022-08-19T10:55:08;5.67;;;4.97;;
13327;SDS011;6733;51.044;3.746;2022-08-19T10:57:53;5.20;;;4.70;;
13327;SDS011;6733;51.044;3.746;2022-08-19T11:00:20;4.80;;;4.40;;
13327;SDS011;6733;51.044;3.746;2022-08-19T11:02:48;6.50;;;5.90;;
13327;SDS011;6733;51.044;3.746;2022-08-19T11:05:15;7.13;;;5.07;;
13327;SDS011;6733;51.044;3.746;2022-08-19T11:07:42;5.40;;;4.90;;
13327;SDS011;6733;51.044;3.746;2022-08-19T11:10:10;6.87;;;4.47;;
13327;SDS011;6733;51.044;3.746;2022-08-19T11:12:39;8.30;;;5.00;;
13327;SDS011;6733;51.044;3.746;2022-08-19T11:15:07;6.50;;;5.30;;
13327;SDS011;6733;51.044;3.746;2022-08-19T11:17:37;5.33;;;4.83;;
13327;SDS011;6733;51.044;3.746;2022-08-19T11:20:06;5.17;;;4.40;;
13327;SDS011;6733;51.044;3.746;2022-08-19T11:22:34;6.47;;;4.00;;
13327;SDS011;6733;51.044;3.746;2022-08-19T11:25:00;4.43;;;3.90;;
13327;SDS011;6733;51.044;3.746;2022-08-19T11:27:26;4.30;;;3.30;;
13327;SDS011;6733;51.044;3.746;2022-08-19T11:29:54;7.07;;;4.10;;
13327;SDS011;6733;51.044;3.746;2022-08-19T11:32:20;4.73;;;3.20;;
13327;SDS011;6733;51.044;3.746;2022-08-19T11:34:46;3.67;;;2.90;;
13327;SDS011;6733;51.044;3.746;2022-08-19T11:37:12;2.70;;;2.47;;
13327;SDS011;6733;51.044;3.746;2022-08-19T11:39:38;3.17;;;2.87;;
13327;SDS011;6733;51.044;3.746;2022-08-19T11:42:06;4.87;;;2.90;;
13327;SDS011;6733;51.044;3.746;2022-08-19T11:44:53;3.70;;;2.97;;
13327;SDS011;6733;51.044;3.746;2022-08-19T11:47:19;5.63;;;2.70;;
13327;SDS011;6733;51.044;3.746;2022-08-19T11:49:46;7.43;;;2.57;;
13327;SDS011;6733;51.044;3.746;2022-08-19T11:52:13;4.33;;;2.43;;
13327;SDS011;6733;51.044;3.746;2022-08-19T11:54:39;2.40;;;2.20;;
13327;SDS011;6733;51.044;3.746;2022-08-19T11:57:05;4.03;;;1.90;;
13327;SDS011;6733;51.044;3.746;2022-08-19T11:59:31;5.37;;;1.90;;
13327;SDS011;6733;51.044;3.746;2022-08-19T12:01:58;6.93;;;2.17;;
13327;SDS011;6733;51.044;3.746;2022-08-19T12:04:24;3.97;;;2.00;;
13327;SDS011;6733;51.044;3.746;2022-08-19T12:06:50;2.40;;;2.03;;
13327;SDS011;6733;51.044;3.746;2022-08-19T12:09:17;3.23;;;1.80;;
13327;SDS011;6733;51.044;3.746;2022-08-19T12:11:43;3.00;;;1.90;;
13327;SDS011;6733;51.044;3.746;2022-08-19T12:14:10;4.63;;;2.07;;
13327;SDS011;6733;51.044;3.746;2022-08-19T12:16:39;3.00;;;2.07;;
13327;SDS011;6733;51.044;3.746;2022-08-19T12:19:06;4.13;;;2.00;;
13327;SDS011;6733;51.044;3.746;2022-08-19T12:21:34;4.10;;;2.10;;
13327;SDS011;6733;51.044;3.746;2022-08-19T12:24:01;4.83;;;2.63;;
13327;SDS011;6733;51.044;3.746;2022-08-19T12:26:29;3.90;;;2.67;;
13327;SDS011;6733;51.044;3.746;2022-08-19T12:28:57;3.10;;;2.75;;
13327;SDS011;6733;51.044;3.746;2022-08-19T12:31:25;4.18;;;2.95;;
13327;SDS011;6733;51.044;3.746;2022-08-19T12:33:53;4.18;;;2.90;;
13327;SDS011;6733;51.044;3.746;2022-08-19T12:36:19;2.92;;;2.45;;
13327;SDS011;6733;51.044;3.746;2022-08-19T12:38:47;3.03;;;2.67;;
13327;SDS011;6733;51.044;3.746;2022-08-19T12:41:14;2.88;;;2.58;;
13327;SDS011;6733;51.044;3.746;2022-08-19T12:43:43;3.30;;;2.37;;
13327;SDS011;6733;51.044;3.746;2022-08-19T12:46:10;4.27;;;2.47;;
13327;SDS011;6733;51.044;3.746;2022-08-19T12:48:37;4.47;;;2.43;;
13327;SDS011;6733;51.044;3.746;2022-08-19T12:51:08;4.33;;;2.43;;
13327;SDS011;6733;51.044;3.746;2022-08-19T12:53:36;3.87;;;2.60;;
13327;SDS011;6733;51.044;3.746;2022-08-19T12:56:03;4.33;;;2.73;;
13327;SDS011;6733;51.044;3.746;2022-08-19T12:58:30;6.00;;;3.53;;
13327;SDS011;6733;51.044;3.746;2022-08-19T13:01:05;4.30;;;2.40;;
13327;SDS011;6733;51.044;3.746;2022-08-19T13:03:32;3.33;;;2.70;;
13327;SDS011;6733;51.044;3.746;2022-08-19T13:05:58;5.37;;;2.80;;
13327;SDS011;6733;51.044;3.746;2022-08-19T13:08:24;6.53;;;3.20;;
13327;SDS011;6733;51.044;3.746;2022-08-19T13:10:50;4.60;;;2.93;;
13327;SDS011;6733;51.044;3.746;2022-08-19T13:13:16;6.00;;;3.00;;
13327;SDS011;6733;51.044;3.746;2022-08-19T13:15:42;5.33;;;2.37;;
13327;SDS011;6733;51.044;3.746;2022-08-19T13:18:10;4.03;;;2.70;;
13327;SDS011;6733;51.044;3.746;2022-08-19T13:20:38;4.78;;;2.85;;
13327;SDS011;6733;51.044;3.746;2022-08-19T13:23:06;5.57;;;3.03;;
13327;SDS011;6733;51.044;3.746;2022-08-19T13:25:33;7.47;;;2.47;;
13327;SDS011;6733;51.044;3.746;2022-08-19T13:27:59;5.93;;;2.90;;
13327;SDS011;6733;51.044;3.746;2022-08-19T13:30:26;11.10;;;3.33;;
13327;SDS011;6733;51.044;3.746;2022-08-19T13:33:11;6.10;;;3.10;;
13327;SDS011;6733;51.044;3.746;2022-08-19T13:35:38;6.87;;;2.77;;
13327;SDS011;6733;51.044;3.746;2022-08-19T13:38:06;5.07;;;2.80;;
13327;SDS011;6733;51.044;3.746;2022-08-19T13:40:33;2.40;;;2.17;;
13327;SDS011;6733;51.044;3.746;2022-08-19T13:42:59;2.27;;;2.00;;
13327;SDS011;6733;51.044;3.746;2022-08-19T13:45:27;4.10;;;2.30;;
13327;SDS011;6733;51.044;3.746;2022-08-19T13:47:55;4.03;;;1.90;;
13327;SDS011;6733;51.044;3.746;2022-08-19T13:50:24;3.07;;;1.90;;
13327;SDS011;6733;51.044;3.746;2022-08-19T13:52:53;4.97;;;1.90;;
13327;SDS011;6733;51.044;3.746;2022-08-19T13:55:21;4.77;;;2.20;;
13327;SDS011;6733;51.044;3.746;2022-08-19T13:57:54;3.40;;;1.87;;
13327;SDS011;6733;51.044;3.746;2022-08-19T14:00:23;3.87;;;1.90;;
13327;SDS011;6733;51.044;3.746;2022-08-19T14:02:52;2.73;;;1.90;;
13327;SDS011;6733;51.044;3.746;2022-08-19T14:05:21;2.93;;;2.07;;
13327;SDS011;6733;51.044;3.746;2022-08-19T14:07:48;4.83;;;2.53;;
13327;SDS011;6733;51.044;3.746;2022-08-19T14:10:14;4.10;;;2.30;;
13327;SDS011;6733;51.044;3.746;2022-08-19T14:12:41;4.27;;;3.00;;
13327;SDS011;6733;51.044;3.746;2022-08-19T14:15:08;2.80;;;2.47;;
13327;SDS011;6733;51.044;3.746;2022-08-19T14:17:40;4.10;;;2.63;;
13327;SDS011;6733;51.044;3.746;2022-08-19T14:20:08;7.28;;;2.58;;
13327;SDS011;6733;51.044;3.746;2022-08-19T14:22:37;2.70;;;2.40;;
13327;SDS011;6733;51.044;3.746;2022-08-19T14:25:05;6.78;;;2.72;;
13327;SDS011;6733;51.044;3.746;2022-08-19T14:27:37;4.15;;;2.75;;
13327;SDS011;6733;51.044;3.746;2022-08-19T14:30:05;6.30;;;3.17;;
13327;SDS011;6733;51.044;3.746;2022-08-19T14:32:34;3.58;;;2.85;;
13327;SDS011;6733;51.044;3.746;2022-08-19T14:35:01;7.43;;;3.40;;
13327;SDS011;6733;51.044;3.746;2022-08-19T14:37:28;5.13;;;3.67;;
13327;SDS011;6733;51.044;3.746;2022-08-19T14:39:54;7.60;;;4.03;;
13327;SDS011;6733;51.044;3.746;2022-08-19T14:42:20;5.45;;;3.90;;
13327;SDS011;6733;51.044;3.746;2022-08-19T14:44:47;9.48;;;5.03;;
13327;SDS011;6733;51.044;3.746;2022-08-19T14:47:13;6.57;;;4.15;;
13327;SDS011;6733;51.044;3.746;2022-08-19T14:49:39;6.00;;;4.00;;
13327;SDS011;6733;51.044;3.746;2022-08-19T14:52:06;7.10;;;4.05;;
13327;SDS011;6733;51.044;3.746;2022-08-19T14:54:32;6.80;;;4.43;;
13327;SDS011;6733;51.044;3.746;2022-08-19T14:56:59;6.38;;;4.53;;
13327;SDS011;6733;51.044;3.746;2022-08-19T14:59:25;6.93;;;4.90;;
13327;SDS011;6733;51.044;3.746;2022-08-19T15:01:51;6.85;;;4.90;;